sensor_id;sensor_type;location;lat;lon;timestamp;P1;durP1;ratioP1;P2;durP2;ratioP2
17796;SDS011;55596;53.554;9.916;2023-02-15T00:01:30;472.27;;;55.40;;
17796;SDS011;55596;53.554;9.916;2023-02-15T00:03:58;317.73;;;52.07;;
17796;SDS011;55596;53.554;9.916;2023-02-15T00:06:25;297.33;;;49.67;;
17796;SDS011;55596;53.554;9.916;2023-02-15T00:08:53;316.50;;;51.57;;
17796;SDS011;55596;53.554;9.916;2023-02-15T00:11:21;391.77;;;54.57;;
17796;SDS011;55596;53.554;9.916;2023-02-15T00:14:02;468.67;;;55.67;;
17796;SDS011;55596;53.554;9.916;2023-02-15T00:16:29;318.00;;;52.77;;
17796;SDS011;55596;53.554;9.916;2023-02-15T00:19:00;280.37;;;51.60;;
17796;SDS011;55596;53.554;9.916;2023-02-15T00:21:27;216.57;;;50.53;;
17796;SDS011;55596;53.554;9.916;2023-02-15T00:23:55;332.33;;;54.23;;
17796;SDS011;55596;53.554;9.916;2023-02-15T00:26:22;395.53;;;55.60;;
17796;SDS011;55596;53.554;9.916;2023-02-15T00:28:49;196.33;;;50.53;;
17796;SDS011;55596;53.554;9.916;2023-02-15T00:31:16;299.80;;;53.57;;
17796;SDS011;55596;53.554;9.916;2023-02-15T00:33:43;461.13;;;59.00;;
17796;SDS011;55596;53.554;9.916;2023-02-15T00:36:11;340.50;;;54.73;;
17796;SDS011;55596;53.554;9.916;2023-02-15T00:38:39;378.13;;;58.20;;
17796;SDS011;55596;53.554;9.916;2023-02-15T00:41:06;409.60;;;55.83;;
17796;SDS011;55596;53.554;9.916;2023-02-15T00:43:34;253.67;;;52.77;;
17796;SDS011;55596;53.554;9.916;2023-02-15T00:46:02;713.23;;;64.40;;
17796;SDS011;55596;53.554;9.916;2023-02-15T00:48:30;245.60;;;52.77;;
17796;SDS011;55596;53.554;9.916;2023-02-15T00:50:58;368.77;;;58.30;;
17796;SDS011;55596;53.554;9.916;2023-02-15T00:53:27;306.57;;;54.83;;
17796;SDS011;55596;53.554;9.916;2023-02-15T00:55:55;563.63;;;63.87;;
17796;SDS011;55596;53.554;9.916;2023-02-15T00:58:23;341.83;;;53.63;;
17796;SDS011;55596;53.554;9.916;2023-02-15T01:00:50;400.43;;;53.87;;
17796;SDS011;55596;53.554;9.916;2023-02-15T01:03:18;315.97;;;54.03;;
17796;SDS011;55596;53.554;9.916;2023-02-15T01:05:46;511.97;;;60.40;;
17796;SDS011;55596;53.554;9.916;2023-02-15T01:08:15;607.87;;;62.37;;
17796;SDS011;55596;53.554;9.916;2023-02-15T01:10:43;438.67;;;57.33;;
17796;SDS011;55596;53.554;9.916;2023-02-15T01:13:12;687.47;;;67.70;;
17796;SDS011;55596;53.554;9.916;2023-02-15T01:15:40;348.20;;;56.57;;
17796;SDS011;55596;53.554;9.916;2023-02-15T01:18:07;305.40;;;57.10;;
17796;SDS011;55596;53.554;9.916;2023-02-15T01:20:35;173.50;;;51.43;;
17796;SDS011;55596;53.554;9.916;2023-02-15T01:23:04;248.17;;;54.07;;
17796;SDS011;55596;53.554;9.916;2023-02-15T01:25:32;519.50;;;60.33;;
17796;SDS011;55596;53.554;9.916;2023-02-15T01:28:01;346.93;;;57.20;;
17796;SDS011;55596;53.554;9.916;2023-02-15T01:30:29;304.93;;;53.90;;
17796;SDS011;55596;53.554;9.916;2023-02-15T01:32:55;449.57;;;61.43;;
17796;SDS011;55596;53.554;9.916;2023-02-15T01:35:22;437.07;;;59.60;;
17796;SDS011;55596;53.554;9.916;2023-02-15T01:37:49;299.63;;;53.97;;
17796;SDS011;55596;53.554;9.916;2023-02-15T01:40:17;291.80;;;56.20;;
17796;SDS011;55596;53.554;9.916;2023-02-15T01:42:44;666.23;;;67.13;;
17796;SDS011;55596;53.554;9.916;2023-02-15T01:45:18;350.80;;;58.37;;
17796;SDS011;55596;53.554;9.916;2023-02-15T01:47:49;769.13;;;71.90;;
17796;SDS011;55596;53.554;9.916;2023-02-15T01:50:21;348.43;;;53.80;;
17796;SDS011;55596;53.554;9.916;2023-02-15T01:52:53;585.23;;;62.30;;
17796;SDS011;55596;53.554;9.916;2023-02-15T01:55:23;289.63;;;52.70;;
17796;SDS011;55596;53.554;9.916;2023-02-15T01:57:53;791.13;;;66.67;;
17796;SDS011;55596;53.554;9.916;2023-02-15T02:00:22;1022.10;;;76.43;;
17796;SDS011;55596;53.554;9.916;2023-02-15T02:02:49;616.50;;;66.53;;
17796;SDS011;55596;53.554;9.916;2023-02-15T02:05:21;544.47;;;62.37;;
17796;SDS011;55596;53.554;9.916;2023-02-15T02:07:48;671.20;;;67.00;;
17796;SDS011;55596;53.554;9.916;2023-02-15T02:10:21;489.13;;;58.53;;
17796;SDS011;55596;53.554;9.916;2023-02-15T02:12:49;546.03;;;62.87;;
17796;SDS011;55596;53.554;9.916;2023-02-15T02:15:18;336.00;;;56.53;;
17796;SDS011;55596;53.554;9.916;2023-02-15T02:17:54;562.83;;;62.73;;
17796;SDS011;55596;53.554;9.916;2023-02-15T02:23:26;568.33;;;62.53;;
17796;SDS011;55596;53.554;9.916;2023-02-15T02:26:25;563.77;;;63.03;;
17796;SDS011;55596;53.554;9.916;2023-02-15T02:32:28;437.73;;;57.43;;
17796;SDS011;55596;53.554;9.916;2023-02-15T02:35:23;453.73;;;58.53;;
17796;SDS011;55596;53.554;9.916;2023-02-15T02:38:08;225.30;;;51.53;;
17796;SDS011;55596;53.554;9.916;2023-02-15T02:40:43;262.27;;;52.13;;
17796;SDS011;55596;53.554;9.916;2023-02-15T02:43:20;491.30;;;57.83;;
17796;SDS011;55596;53.554;9.916;2023-02-15T02:45:53;326.37;;;53.67;;
17796;SDS011;55596;53.554;9.916;2023-02-15T02:48:24;590.80;;;61.83;;
17796;SDS011;55596;53.554;9.916;2023-02-15T02:50:55;566.57;;;60.47;;
17796;SDS011;55596;53.554;9.916;2023-02-15T02:53:22;351.43;;;55.20;;
17796;SDS011;55596;53.554;9.916;2023-02-15T02:55:49;461.43;;;59.90;;
17796;SDS011;55596;53.554;9.916;2023-02-15T02:58:20;570.73;;;61.60;;
17796;SDS011;55596;53.554;9.916;2023-02-15T03:00:53;584.17;;;62.60;;
17796;SDS011;55596;53.554;9.916;2023-02-15T03:03:23;380.83;;;56.10;;
17796;SDS011;55596;53.554;9.916;2023-02-15T03:05:56;648.33;;;63.10;;
17796;SDS011;55596;53.554;9.916;2023-02-15T03:08:26;382.20;;;54.17;;
17796;SDS011;55596;53.554;9.916;2023-02-15T03:10:59;376.97;;;55.33;;
17796;SDS011;55596;53.554;9.916;2023-02-15T03:13:27;425.27;;;56.57;;
17796;SDS011;55596;53.554;9.916;2023-02-15T03:15:55;370.07;;;55.70;;
17796;SDS011;55596;53.554;9.916;2023-02-15T03:18:42;426.67;;;57.27;;
17796;SDS011;55596;53.554;9.916;2023-02-15T03:21:19;591.23;;;61.10;;
17796;SDS011;55596;53.554;9.916;2023-02-15T03:23:51;700.13;;;67.97;;
17796;SDS011;55596;53.554;9.916;2023-02-15T03:26:20;297.17;;;55.17;;
17796;SDS011;55596;53.554;9.916;2023-02-15T03:28:51;560.17;;;59.87;;
17796;SDS011;55596;53.554;9.916;2023-02-15T03:31:21;414.57;;;55.80;;
17796;SDS011;55596;53.554;9.916;2023-02-15T03:33:52;425.97;;;57.10;;
17796;SDS011;55596;53.554;9.916;2023-02-15T03:36:24;438.77;;;55.70;;
17796;SDS011;55596;53.554;9.916;2023-02-15T03:38:57;473.70;;;54.03;;
17796;SDS011;55596;53.554;9.916;2023-02-15T03:41:30;494.37;;;56.53;;
17796;SDS011;55596;53.554;9.916;2023-02-15T03:44:04;384.07;;;51.50;;
17796;SDS011;55596;53.554;9.916;2023-02-15T03:46:35;416.53;;;55.63;;
17796;SDS011;55596;53.554;9.916;2023-02-15T03:49:08;414.47;;;57.30;;
17796;SDS011;55596;53.554;9.916;2023-02-15T03:51:39;610.57;;;61.23;;
17796;SDS011;55596;53.554;9.916;2023-02-15T03:54:09;404.23;;;53.93;;
17796;SDS011;55596;53.554;9.916;2023-02-15T03:56:39;444.17;;;53.70;;
17796;SDS011;55596;53.554;9.916;2023-02-15T03:59:27;479.17;;;56.63;;
17796;SDS011;55596;53.554;9.916;2023-02-15T04:02:14;482.37;;;56.87;;
17796;SDS011;55596;53.554;9.916;2023-02-15T04:04:46;280.60;;;51.87;;
17796;SDS011;55596;53.554;9.916;2023-02-15T04:07:15;500.70;;;56.80;;
17796;SDS011;55596;53.554;9.916;2023-02-15T04:09:42;311.97;;;50.93;;
17796;SDS011;55596;53.554;9.916;2023-02-15T04:12:26;483.97;;;55.80;;
17796;SDS011;55596;53.554;9.916;2023-02-15T04:15:00;531.70;;;57.47;;
17796;SDS011;55596;53.554;9.916;2023-02-15T04:17:46;491.90;;;53.73;;
17796;SDS011;55596;53.554;9.916;2023-02-15T04:20:12;364.83;;;50.87;;
17796;SDS011;55596;53.554;9.916;2023-02-15T04:22:58;726.87;;;61.90;;
17796;SDS011;55596;53.554;9.916;2023-02-15T04:25:42;347.67;;;53.00;;
17796;SDS011;55596;53.554;9.916;2023-02-15T04:28:09;278.30;;;51.87;;
17796;SDS011;55596;53.554;9.916;2023-02-15T04:30:36;717.90;;;62.37;;
17796;SDS011;55596;53.554;9.916;2023-02-15T04:33:02;443.93;;;53.20;;
17796;SDS011;55596;53.554;9.916;2023-02-15T04:35:29;368.73;;;52.93;;
17796;SDS011;55596;53.554;9.916;2023-02-15T04:37:56;424.27;;;53.80;;
17796;SDS011;55596;53.554;9.916;2023-02-15T04:40:25;523.97;;;53.73;;
17796;SDS011;55596;53.554;9.916;2023-02-15T04:42:52;649.03;;;55.83;;
17796;SDS011;55596;53.554;9.916;2023-02-15T04:45:18;637.47;;;58.83;;
17796;SDS011;55596;53.554;9.916;2023-02-15T04:47:45;544.63;;;55.73;;
17796;SDS011;55596;53.554;9.916;2023-02-15T04:50:12;608.47;;;58.07;;
17796;SDS011;55596;53.554;9.916;2023-02-15T04:52:39;434.13;;;51.87;;
17796;SDS011;55596;53.554;9.916;2023-02-15T04:55:08;347.97;;;51.77;;
17796;SDS011;55596;53.554;9.916;2023-02-15T04:57:35;504.23;;;54.23;;
17796;SDS011;55596;53.554;9.916;2023-02-15T05:00:02;540.10;;;57.40;;
17796;SDS011;55596;53.554;9.916;2023-02-15T05:02:29;700.97;;;59.57;;
17796;SDS011;55596;53.554;9.916;2023-02-15T05:04:56;338.77;;;47.93;;
17796;SDS011;55596;53.554;9.916;2023-02-15T05:07:23;468.23;;;53.73;;
17796;SDS011;55596;53.554;9.916;2023-02-15T05:09:50;635.63;;;54.40;;
17796;SDS011;55596;53.554;9.916;2023-02-15T05:12:18;465.00;;;53.00;;
17796;SDS011;55596;53.554;9.916;2023-02-15T05:14:45;377.03;;;49.47;;
17796;SDS011;55596;53.554;9.916;2023-02-15T05:17:12;541.80;;;53.30;;
17796;SDS011;55596;53.554;9.916;2023-02-15T05:19:39;323.07;;;50.97;;
17796;SDS011;55596;53.554;9.916;2023-02-15T05:22:06;724.90;;;60.97;;
17796;SDS011;55596;53.554;9.916;2023-02-15T05:24:32;400.23;;;51.20;;
17796;SDS011;55596;53.554;9.916;2023-02-15T05:27:18;421.37;;;51.40;;
17796;SDS011;55596;53.554;9.916;2023-02-15T05:30:14;377.37;;;46.97;;
17796;SDS011;55596;53.554;9.916;2023-02-15T05:32:41;588.77;;;55.50;;
17796;SDS011;55596;53.554;9.916;2023-02-15T05:35:11;447.10;;;49.63;;
17796;SDS011;55596;53.554;9.916;2023-02-15T05:37:40;463.17;;;48.47;;
17796;SDS011;55596;53.554;9.916;2023-02-15T05:40:07;551.40;;;51.63;;
17796;SDS011;55596;53.554;9.916;2023-02-15T05:42:36;389.87;;;48.17;;
17796;SDS011;55596;53.554;9.916;2023-02-15T05:45:03;579.00;;;52.03;;
17796;SDS011;55596;53.554;9.916;2023-02-15T05:47:31;617.53;;;55.23;;
17796;SDS011;55596;53.554;9.916;2023-02-15T05:49:57;429.23;;;50.50;;
17796;SDS011;55596;53.554;9.916;2023-02-15T05:52:24;772.63;;;60.53;;
17796;SDS011;55596;53.554;9.916;2023-02-15T05:54:51;892.57;;;66.13;;
17796;SDS011;55596;53.554;9.916;2023-02-15T05:57:19;259.97;;;42.77;;
17796;SDS011;55596;53.554;9.916;2023-02-15T05:59:47;498.37;;;52.80;;
17796;SDS011;55596;53.554;9.916;2023-02-15T06:02:14;457.20;;;48.40;;
17796;SDS011;55596;53.554;9.916;2023-02-15T06:04:41;609.13;;;51.67;;
17796;SDS011;55596;53.554;9.916;2023-02-15T06:07:08;284.77;;;43.80;;
17796;SDS011;55596;53.554;9.916;2023-02-15T06:09:35;449.33;;;48.40;;
17796;SDS011;55596;53.554;9.916;2023-02-15T06:12:02;306.20;;;46.53;;
17796;SDS011;55596;53.554;9.916;2023-02-15T06:14:29;392.63;;;48.40;;
17796;SDS011;55596;53.554;9.916;2023-02-15T06:16:57;281.37;;;46.73;;
17796;SDS011;55596;53.554;9.916;2023-02-15T06:19:24;549.40;;;51.50;;
17796;SDS011;55596;53.554;9.916;2023-02-15T06:21:51;373.50;;;49.07;;
17796;SDS011;55596;53.554;9.916;2023-02-15T06:24:18;277.57;;;48.13;;
17796;SDS011;55596;53.554;9.916;2023-02-15T06:26:45;415.37;;;46.23;;
17796;SDS011;55596;53.554;9.916;2023-02-15T06:29:12;234.20;;;42.90;;
17796;SDS011;55596;53.554;9.916;2023-02-15T06:31:39;466.67;;;48.27;;
17796;SDS011;55596;53.554;9.916;2023-02-15T06:34:07;783.00;;;53.43;;
17796;SDS011;55596;53.554;9.916;2023-02-15T06:36:34;994.17;;;63.03;;
17796;SDS011;55596;53.554;9.916;2023-02-15T06:39:01;360.13;;;44.37;;
17796;SDS011;55596;53.554;9.916;2023-02-15T06:41:29;424.80;;;47.57;;
17796;SDS011;55596;53.554;9.916;2023-02-15T06:43:56;511.57;;;50.07;;
17796;SDS011;55596;53.554;9.916;2023-02-15T06:46:22;278.80;;;40.57;;
17796;SDS011;55596;53.554;9.916;2023-02-15T06:48:50;322.80;;;44.70;;
17796;SDS011;55596;53.554;9.916;2023-02-15T06:51:18;280.73;;;44.53;;
17796;SDS011;55596;53.554;9.916;2023-02-15T06:53:45;294.77;;;44.60;;
17796;SDS011;55596;53.554;9.916;2023-02-15T06:56:12;341.90;;;44.40;;
17796;SDS011;55596;53.554;9.916;2023-02-15T06:58:39;315.47;;;45.50;;
17796;SDS011;55596;53.554;9.916;2023-02-15T07:01:06;247.90;;;42.73;;
17796;SDS011;55596;53.554;9.916;2023-02-15T07:03:35;254.10;;;43.87;;
17796;SDS011;55596;53.554;9.916;2023-02-15T07:06:02;295.07;;;42.87;;
17796;SDS011;55596;53.554;9.916;2023-02-15T07:08:34;264.23;;;46.70;;
17796;SDS011;55596;53.554;9.916;2023-02-15T07:11:01;308.07;;;45.30;;
17796;SDS011;55596;53.554;9.916;2023-02-15T07:13:42;337.10;;;46.10;;
17796;SDS011;55596;53.554;9.916;2023-02-15T07:16:09;240.13;;;42.57;;
17796;SDS011;55596;53.554;9.916;2023-02-15T07:18:37;543.27;;;53.33;;
17796;SDS011;55596;53.554;9.916;2023-02-15T07:21:04;593.60;;;50.93;;
17796;SDS011;55596;53.554;9.916;2023-02-15T07:23:33;548.17;;;52.07;;
17796;SDS011;55596;53.554;9.916;2023-02-15T07:26:01;608.70;;;53.60;;
17796;SDS011;55596;53.554;9.916;2023-02-15T07:28:29;361.10;;;45.83;;
17796;SDS011;55596;53.554;9.916;2023-02-15T07:30:57;307.20;;;45.00;;
17796;SDS011;55596;53.554;9.916;2023-02-15T07:33:24;913.90;;;63.13;;
17796;SDS011;55596;53.554;9.916;2023-02-15T07:35:52;240.47;;;43.13;;
17796;SDS011;55596;53.554;9.916;2023-02-15T07:38:22;331.70;;;44.80;;
17796;SDS011;55596;53.554;9.916;2023-02-15T07:40:50;377.40;;;48.30;;
17796;SDS011;55596;53.554;9.916;2023-02-15T07:43:17;549.73;;;52.70;;
17796;SDS011;55596;53.554;9.916;2023-02-15T07:45:44;494.73;;;50.27;;
17796;SDS011;55596;53.554;9.916;2023-02-15T07:48:11;313.60;;;44.70;;
17796;SDS011;55596;53.554;9.916;2023-02-15T07:50:38;541.63;;;51.20;;
17796;SDS011;55596;53.554;9.916;2023-02-15T07:53:05;138.70;;;41.97;;
17796;SDS011;55596;53.554;9.916;2023-02-15T07:55:32;237.00;;;42.20;;
17796;SDS011;55596;53.554;9.916;2023-02-15T07:58:01;450.57;;;49.50;;
17796;SDS011;55596;53.554;9.916;2023-02-15T08:00:28;483.17;;;46.83;;
17796;SDS011;55596;53.554;9.916;2023-02-15T08:02:56;392.83;;;45.97;;
17796;SDS011;55596;53.554;9.916;2023-02-15T08:05:42;518.37;;;46.97;;
17796;SDS011;55596;53.554;9.916;2023-02-15T08:08:10;130.27;;;38.90;;
17796;SDS011;55596;53.554;9.916;2023-02-15T08:10:56;324.20;;;43.67;;
17796;SDS011;55596;53.554;9.916;2023-02-15T08:13:43;97.97;;;38.47;;
17796;SDS011;55596;53.554;9.916;2023-02-15T08:16:20;378.03;;;43.47;;
17796;SDS011;55596;53.554;9.916;2023-02-15T08:18:48;319.47;;;41.80;;
17796;SDS011;55596;53.554;9.916;2023-02-15T08:21:15;119.27;;;39.17;;
17796;SDS011;55596;53.554;9.916;2023-02-15T08:23:42;254.67;;;40.43;;
17796;SDS011;55596;53.554;9.916;2023-02-15T08:26:09;114.10;;;38.87;;
17796;SDS011;55596;53.554;9.916;2023-02-15T08:28:36;210.40;;;40.93;;
17796;SDS011;55596;53.554;9.916;2023-02-15T08:31:05;133.97;;;38.60;;
17796;SDS011;55596;53.554;9.916;2023-02-15T08:33:32;187.57;;;37.10;;
17796;SDS011;55596;53.554;9.916;2023-02-15T08:36:01;210.43;;;39.67;;
17796;SDS011;55596;53.554;9.916;2023-02-15T08:38:29;139.73;;;39.47;;
17796;SDS011;55596;53.554;9.916;2023-02-15T08:40:56;202.50;;;38.77;;
17796;SDS011;55596;53.554;9.916;2023-02-15T08:43:23;104.87;;;36.80;;
17796;SDS011;55596;53.554;9.916;2023-02-15T08:45:50;178.77;;;38.47;;
17796;SDS011;55596;53.554;9.916;2023-02-15T08:48:18;187.73;;;35.53;;
17796;SDS011;55596;53.554;9.916;2023-02-15T08:50:45;209.97;;;35.30;;
17796;SDS011;55596;53.554;9.916;2023-02-15T08:53:12;126.83;;;36.30;;
17796;SDS011;55596;53.554;9.916;2023-02-15T08:55:39;98.87;;;36.60;;
17796;SDS011;55596;53.554;9.916;2023-02-15T08:58:06;192.23;;;36.43;;
17796;SDS011;55596;53.554;9.916;2023-02-15T09:00:32;175.37;;;35.70;;
17796;SDS011;55596;53.554;9.916;2023-02-15T09:02:59;120.47;;;34.47;;
17796;SDS011;55596;53.554;9.916;2023-02-15T09:05:28;76.47;;;34.50;;
17796;SDS011;55596;53.554;9.916;2023-02-15T09:07:54;74.17;;;32.53;;
17796;SDS011;55596;53.554;9.916;2023-02-15T09:10:21;165.67;;;33.90;;
17796;SDS011;55596;53.554;9.916;2023-02-15T09:12:48;163.20;;;31.00;;
17796;SDS011;55596;53.554;9.916;2023-02-15T09:15:16;132.53;;;31.47;;
17796;SDS011;55596;53.554;9.916;2023-02-15T09:17:43;82.90;;;30.10;;
17796;SDS011;55596;53.554;9.916;2023-02-15T09:20:10;316.97;;;34.10;;
17796;SDS011;55596;53.554;9.916;2023-02-15T09:22:38;57.23;;;30.93;;
17796;SDS011;55596;53.554;9.916;2023-02-15T09:25:05;131.00;;;29.70;;
17796;SDS011;55596;53.554;9.916;2023-02-15T09:27:32;149.17;;;30.30;;
17796;SDS011;55596;53.554;9.916;2023-02-15T09:29:59;54.13;;;28.80;;
17796;SDS011;55596;53.554;9.916;2023-02-15T09:32:26;105.73;;;29.13;;
17796;SDS011;55596;53.554;9.916;2023-02-15T09:34:53;57.73;;;28.73;;
17796;SDS011;55596;53.554;9.916;2023-02-15T09:37:20;66.80;;;31.47;;
17796;SDS011;55596;53.554;9.916;2023-02-15T09:39:48;195.97;;;30.00;;
17796;SDS011;55596;53.554;9.916;2023-02-15T09:42:28;98.97;;;28.47;;
17796;SDS011;55596;53.554;9.916;2023-02-15T09:45:13;78.20;;;29.13;;
17796;SDS011;55596;53.554;9.916;2023-02-15T09:48:00;95.33;;;29.63;;
17796;SDS011;55596;53.554;9.916;2023-02-15T09:50:37;133.73;;;28.90;;
17796;SDS011;55596;53.554;9.916;2023-02-15T09:53:17;71.50;;;27.00;;
17796;SDS011;55596;53.554;9.916;2023-02-15T09:55:58;48.30;;;29.73;;
17796;SDS011;55596;53.554;9.916;2023-02-15T09:58:35;64.10;;;29.20;;
17796;SDS011;55596;53.554;9.916;2023-02-15T10:01:11;73.73;;;30.23;;
17796;SDS011;55596;53.554;9.916;2023-02-15T10:03:53;52.67;;;31.00;;
17796;SDS011;55596;53.554;9.916;2023-02-15T10:06:38;51.60;;;29.60;;
17796;SDS011;55596;53.554;9.916;2023-02-15T10:09:16;65.57;;;30.53;;
17796;SDS011;55596;53.554;9.916;2023-02-15T10:12:01;47.93;;;30.63;;
17796;SDS011;55596;53.554;9.916;2023-02-15T10:15:10;54.17;;;28.87;;
17796;SDS011;55596;53.554;9.916;2023-02-15T10:17:59;51.23;;;29.17;;
17796;SDS011;55596;53.554;9.916;2023-02-15T10:20:45;60.83;;;29.17;;
17796;SDS011;55596;53.554;9.916;2023-02-15T10:23:23;53.47;;;28.47;;
17796;SDS011;55596;53.554;9.916;2023-02-15T10:26:00;58.27;;;27.47;;
17796;SDS011;55596;53.554;9.916;2023-02-15T10:28:39;88.43;;;28.97;;
17796;SDS011;55596;53.554;9.916;2023-02-15T10:31:15;42.20;;;28.30;;
17796;SDS011;55596;53.554;9.916;2023-02-15T10:33:50;52.70;;;29.17;;
17796;SDS011;55596;53.554;9.916;2023-02-15T10:36:46;40.97;;;27.57;;
17796;SDS011;55596;53.554;9.916;2023-02-15T10:39:30;44.87;;;27.23;;
17796;SDS011;55596;53.554;9.916;2023-02-15T10:42:06;45.23;;;27.30;;
17796;SDS011;55596;53.554;9.916;2023-02-15T10:44:46;45.77;;;28.80;;
17796;SDS011;55596;53.554;9.916;2023-02-15T10:50:27;41.63;;;26.97;;
17796;SDS011;55596;53.554;9.916;2023-02-15T10:53:07;39.50;;;27.73;;
17796;SDS011;55596;53.554;9.916;2023-02-15T10:55:47;39.90;;;28.83;;
17796;SDS011;55596;53.554;9.916;2023-02-15T10:58:23;42.33;;;28.50;;
17796;SDS011;55596;53.554;9.916;2023-02-15T11:01:01;43.53;;;29.50;;
17796;SDS011;55596;53.554;9.916;2023-02-15T11:03:41;47.27;;;30.93;;
17796;SDS011;55596;53.554;9.916;2023-02-15T11:06:19;40.30;;;30.13;;
17796;SDS011;55596;53.554;9.916;2023-02-15T11:08:48;41.23;;;30.10;;
17796;SDS011;55596;53.554;9.916;2023-02-15T11:11:19;42.60;;;30.37;;
17796;SDS011;55596;53.554;9.916;2023-02-15T11:13:51;48.50;;;34.07;;
17796;SDS011;55596;53.554;9.916;2023-02-15T11:16:24;53.43;;;35.83;;
17796;SDS011;55596;53.554;9.916;2023-02-15T11:18:56;54.00;;;36.27;;
17796;SDS011;55596;53.554;9.916;2023-02-15T11:21:26;49.20;;;34.97;;
17796;SDS011;55596;53.554;9.916;2023-02-15T11:24:07;50.57;;;33.37;;
17796;SDS011;55596;53.554;9.916;2023-02-15T11:26:38;48.73;;;32.80;;
17796;SDS011;55596;53.554;9.916;2023-02-15T11:29:10;44.30;;;32.43;;
17796;SDS011;55596;53.554;9.916;2023-02-15T11:31:46;47.70;;;31.37;;
17796;SDS011;55596;53.554;9.916;2023-02-15T11:34:18;52.83;;;35.43;;
17796;SDS011;55596;53.554;9.916;2023-02-15T11:36:55;46.20;;;32.43;;
17796;SDS011;55596;53.554;9.916;2023-02-15T11:39:27;45.63;;;33.30;;
17796;SDS011;55596;53.554;9.916;2023-02-15T11:41:57;52.90;;;32.23;;
17796;SDS011;55596;53.554;9.916;2023-02-15T11:44:30;44.90;;;31.77;;
17796;SDS011;55596;53.554;9.916;2023-02-15T11:47:00;43.50;;;31.70;;
17796;SDS011;55596;53.554;9.916;2023-02-15T11:49:29;47.57;;;33.33;;
17796;SDS011;55596;53.554;9.916;2023-02-15T11:51:58;44.93;;;32.37;;
17796;SDS011;55596;53.554;9.916;2023-02-15T11:54:29;40.63;;;30.37;;
17796;SDS011;55596;53.554;9.916;2023-02-15T11:57:01;40.47;;;29.27;;
17796;SDS011;55596;53.554;9.916;2023-02-15T11:59:36;34.77;;;28.60;;
17796;SDS011;55596;53.554;9.916;2023-02-15T12:02:14;35.40;;;27.67;;
17796;SDS011;55596;53.554;9.916;2023-02-15T12:04:43;37.70;;;28.10;;
17796;SDS011;55596;53.554;9.916;2023-02-15T12:07:15;36.13;;;26.03;;
17796;SDS011;55596;53.554;9.916;2023-02-15T12:09:48;34.37;;;26.23;;
17796;SDS011;55596;53.554;9.916;2023-02-15T12:12:21;36.53;;;26.80;;
17796;SDS011;55596;53.554;9.916;2023-02-15T12:14:51;31.50;;;24.70;;
17796;SDS011;55596;53.554;9.916;2023-02-15T12:17:21;29.47;;;24.90;;
17796;SDS011;55596;53.554;9.916;2023-02-15T12:19:51;26.10;;;22.80;;
17796;SDS011;55596;53.554;9.916;2023-02-15T12:22:23;27.33;;;23.03;;
17796;SDS011;55596;53.554;9.916;2023-02-15T12:24:52;25.40;;;21.63;;
17796;SDS011;55596;53.554;9.916;2023-02-15T12:27:23;29.93;;;23.87;;
17796;SDS011;55596;53.554;9.916;2023-02-15T12:29:53;26.60;;;22.07;;
17796;SDS011;55596;53.554;9.916;2023-02-15T12:32:25;28.63;;;22.63;;
17796;SDS011;55596;53.554;9.916;2023-02-15T12:34:55;28.53;;;21.47;;
17796;SDS011;55596;53.554;9.916;2023-02-15T12:37:28;30.97;;;23.13;;
17796;SDS011;55596;53.554;9.916;2023-02-15T12:39:59;30.88;;;22.63;;
17796;SDS011;55596;53.554;9.916;2023-02-15T12:42:40;28.35;;;21.20;;
17796;SDS011;55596;53.554;9.916;2023-02-15T12:45:20;30.10;;;20.75;;
17796;SDS011;55596;53.554;9.916;2023-02-15T12:48:09;25.83;;;20.63;;
17796;SDS011;55596;53.554;9.916;2023-02-15T12:50:41;23.00;;;19.63;;
17796;SDS011;55596;53.554;9.916;2023-02-15T12:53:13;24.65;;;20.58;;
17796;SDS011;55596;53.554;9.916;2023-02-15T12:55:49;23.23;;;19.35;;
17796;SDS011;55596;53.554;9.916;2023-02-15T12:58:19;26.75;;;19.35;;
17796;SDS011;55596;53.554;9.916;2023-02-15T13:00:48;23.27;;;20.50;;
17796;SDS011;55596;53.554;9.916;2023-02-15T13:03:30;24.40;;;20.50;;
17796;SDS011;55596;53.554;9.916;2023-02-15T13:05:56;23.17;;;20.67;;
17796;SDS011;55596;53.554;9.916;2023-02-15T13:08:27;25.92;;;20.88;;
17796;SDS011;55596;53.554;9.916;2023-02-15T13:10:57;22.95;;;20.45;;
17796;SDS011;55596;53.554;9.916;2023-02-15T13:13:26;21.58;;;19.38;;
17796;SDS011;55596;53.554;9.916;2023-02-15T13:15:55;24.73;;;20.40;;
17796;SDS011;55596;53.554;9.916;2023-02-15T13:18:28;26.92;;;21.23;;
17796;SDS011;55596;53.554;9.916;2023-02-15T13:21:00;25.73;;;21.25;;
17796;SDS011;55596;53.554;9.916;2023-02-15T13:23:35;21.27;;;19.08;;
17796;SDS011;55596;53.554;9.916;2023-02-15T13:26:04;22.92;;;19.65;;
17796;SDS011;55596;53.554;9.916;2023-02-15T13:28:37;27.20;;;21.02;;
17796;SDS011;55596;53.554;9.916;2023-02-15T13:31:11;24.20;;;20.38;;
17796;SDS011;55596;53.554;9.916;2023-02-15T13:33:42;29.42;;;19.27;;
17796;SDS011;55596;53.554;9.916;2023-02-15T13:36:13;25.15;;;18.92;;
17796;SDS011;55596;53.554;9.916;2023-02-15T13:38:49;22.90;;;18.75;;
17796;SDS011;55596;53.554;9.916;2023-02-15T13:41:30;20.75;;;18.13;;
17796;SDS011;55596;53.554;9.916;2023-02-15T13:44:03;21.73;;;17.05;;
17796;SDS011;55596;53.554;9.916;2023-02-15T13:46:40;22.10;;;18.75;;
17796;SDS011;55596;53.554;9.916;2023-02-15T13:49:21;22.42;;;17.45;;
17796;SDS011;55596;53.554;9.916;2023-02-15T13:52:04;21.73;;;17.92;;
17796;SDS011;55596;53.554;9.916;2023-02-15T14:00:43;20.10;;;17.92;;
17796;SDS011;55596;53.554;9.916;2023-02-15T14:03:27;25.08;;;18.65;;
17796;SDS011;55596;53.554;9.916;2023-02-15T14:06:25;19.95;;;17.17;;
17796;SDS011;55596;53.554;9.916;2023-02-15T14:09:09;19.35;;;17.35;;
17796;SDS011;55596;53.554;9.916;2023-02-15T14:11:47;18.73;;;16.58;;
17796;SDS011;55596;53.554;9.916;2023-02-15T14:14:32;17.67;;;15.80;;
17796;SDS011;55596;53.554;9.916;2023-02-15T14:17:10;19.52;;;16.17;;
17796;SDS011;55596;53.554;9.916;2023-02-15T14:19:42;23.58;;;16.58;;
17796;SDS011;55596;53.554;9.916;2023-02-15T14:22:18;22.17;;;15.82;;
17796;SDS011;55596;53.554;9.916;2023-02-15T14:24:56;17.63;;;15.77;;
17796;SDS011;55596;53.554;9.916;2023-02-15T14:27:39;18.23;;;16.35;;
17796;SDS011;55596;53.554;9.916;2023-02-15T14:30:18;19.30;;;14.70;;
17796;SDS011;55596;53.554;9.916;2023-02-15T14:32:49;17.92;;;16.08;;
17796;SDS011;55596;53.554;9.916;2023-02-15T14:35:20;17.80;;;15.13;;
17796;SDS011;55596;53.554;9.916;2023-02-15T14:37:52;21.88;;;15.95;;
17796;SDS011;55596;53.554;9.916;2023-02-15T14:40:29;17.00;;;15.23;;
17796;SDS011;55596;53.554;9.916;2023-02-15T14:43:19;18.25;;;15.40;;
17796;SDS011;55596;53.554;9.916;2023-02-15T14:45:58;18.27;;;15.90;;
17796;SDS011;55596;53.554;9.916;2023-02-15T14:48:37;23.90;;;19.17;;
17796;SDS011;55596;53.554;9.916;2023-02-15T14:51:08;19.70;;;16.80;;
17796;SDS011;55596;53.554;9.916;2023-02-15T14:53:38;18.30;;;16.37;;
17796;SDS011;55596;53.554;9.916;2023-02-15T14:58:55;18.53;;;15.73;;